createdAt,value
2023-04-21T00:00:16.437Z,86.60
2023-04-21T00:02:21.916Z,86.50
2023-04-21T00:04:27.499Z,86.30
2023-04-21T00:06:32.924Z,86.40
2023-04-21T00:08:41.050Z,86.30
2023-04-21T00:10:47.112Z,86.40
2023-04-21T00:12:52.112Z,86.60
2023-04-21T00:14:57.363Z,86.40
2023-04-21T00:17:02.607Z,86.30
2023-04-21T00:19:08.668Z,86.00
2023-04-21T00:21:14.027Z,86.20
2023-04-21T00:23:19.036Z,85.90
2023-04-21T00:25:27.571Z,85.70
2023-04-21T00:27:32.593Z,86.10
2023-04-21T00:29:37.606Z,86.60
2023-04-21T00:31:42.686Z,86.20
2023-04-21T00:33:47.945Z,86.40
2023-04-21T00:35:55.114Z,86.20
2023-04-21T00:38:00.173Z,86.10
2023-04-21T00:40:05.962Z,86.30
2023-04-21T00:42:13.566Z,86.50
2023-04-21T00:44:18.583Z,86.60
2023-04-21T00:46:23.638Z,86.40
2023-04-21T00:48:28.921Z,86.60
2023-04-21T00:50:35.065Z,86.50
2023-04-21T00:52:42.011Z,86.60
2023-04-21T00:54:47.514Z,86.70
2023-04-21T00:56:53.470Z,87.60
2023-04-21T00:59:02.690Z,87.10
2023-04-21T01:01:08.841Z,87.40
2023-04-21T01:03:14.499Z,86.60
2023-04-21T01:05:20.990Z,86.60
2023-04-21T01:07:28.035Z,87.80
2023-04-21T01:09:34.801Z,87.90
2023-04-21T01:11:42.589Z,87.70
2023-04-21T01:13:48.024Z,87.40
2023-04-21T01:15:55.847Z,87.60
2023-04-21T01:18:01.321Z,87.90
2023-04-21T01:20:12.656Z,87.90
2023-04-21T01:22:20.824Z,88.10
2023-04-21T01:24:27.273Z,88.00
2023-04-21T01:26:32.522Z,87.80
2023-04-21T01:28:38.252Z,87.40
2023-04-21T01:30:43.267Z,87.80
2023-04-21T01:32:48.388Z,88.60
2023-04-21T01:34:53.873Z,88.30
2023-04-21T01:36:59.595Z,88.30
2023-04-21T01:39:07.529Z,88.50
2023-04-21T01:41:13.173Z,88.30
2023-04-21T01:43:19.676Z,88.10
2023-04-21T01:45:24.778Z,87.70
2023-04-21T01:47:30.335Z,88.40
2023-04-21T01:49:35.460Z,88.70
2023-04-21T01:51:41.082Z,88.70
2023-04-21T01:53:46.123Z,88.30
2023-04-21T01:55:54.004Z,88.30
2023-04-21T01:58:00.434Z,88.40
2023-04-21T02:00:05.680Z,88.80
2023-04-21T02:02:20.106Z,89.00
2023-04-21T02:04:25.328Z,89.40
2023-04-21T02:06:31.425Z,88.90
2023-04-21T02:08:37.706Z,89.30
2023-04-21T02:10:42.792Z,89.30
2023-04-21T02:12:53.353Z,89.40
2023-04-21T02:14:58.433Z,89.40
2023-04-21T02:17:04.071Z,89.60
2023-04-21T02:19:09.156Z,90.00
2023-04-21T02:21:14.487Z,90.20
2023-04-21T02:23:20.646Z,90.40
2023-04-21T02:25:26.111Z,90.40
2023-04-21T02:27:31.411Z,90.20
2023-04-21T02:29:40.892Z,90.20
2023-04-21T02:31:58.874Z,90.60
2023-04-21T02:34:08.983Z,90.50
2023-04-21T02:36:16.853Z,90.10
2023-04-21T02:38:22.113Z,90.50
2023-04-21T02:40:27.281Z,90.90
2023-04-21T02:42:32.553Z,90.40
2023-04-21T02:44:40.250Z,90.50
2023-04-21T02:46:46.035Z,90.70
2023-04-21T02:48:52.614Z,90.50
2023-04-21T02:50:57.641Z,91.30
2023-04-21T02:53:03.186Z,91.40
2023-04-21T02:55:09.765Z,91.10
2023-04-21T02:57:14.754Z,91.10
2023-04-21T02:59:20.171Z,91.10
2023-04-21T03:01:28.309Z,91.00
2023-04-21T03:03:34.911Z,91.50
2023-04-21T03:05:40.086Z,91.80
2023-04-21T03:07:45.134Z,91.50
2023-04-21T03:09:50.122Z,91.90
2023-04-21T03:11:56.172Z,91.80
2023-04-21T03:14:01.537Z,91.70
2023-04-21T03:16:08.134Z,92.00
2023-04-21T03:18:16.733Z,91.70
2023-04-21T03:20:21.898Z,92.00
2023-04-21T03:22:26.922Z,92.10
2023-04-21T03:24:31.927Z,92.00
2023-04-21T03:26:37.321Z,92.10
2023-04-21T03:28:43.384Z,91.70
2023-04-21T03:30:48.402Z,92.00
2023-04-21T03:32:54.032Z,91.90
2023-04-21T03:35:01.744Z,91.50
2023-04-21T03:37:07.033Z,91.50
2023-04-21T03:39:19.807Z,91.80
2023-04-21T03:41:26.283Z,91.60
2023-04-21T03:43:31.677Z,91.50
2023-04-21T03:45:38.806Z,91.40
2023-04-21T03:47:44.106Z,91.40
2023-04-21T03:49:49.338Z,91.30
2023-04-21T03:51:56.893Z,91.50
2023-04-21T03:54:02.281Z,91.30
2023-04-21T03:56:08.335Z,91.10
2023-04-21T03:58:13.825Z,91.10
2023-04-21T04:00:19.225Z,91.00
2023-04-21T04:02:24.366Z,91.00
2023-04-21T04:04:29.540Z,91.40
2023-04-21T04:06:35.872Z,91.20
2023-04-21T04:08:43.889Z,90.80
2023-04-21T04:10:48.909Z,91.00
2023-04-21T04:12:55.353Z,91.50
2023-04-21T04:15:00.386Z,91.40
2023-04-21T04:17:05.405Z,91.10
2023-04-21T04:19:11.044Z,91.20
2023-04-21T04:21:16.054Z,91.00
2023-04-21T04:23:22.021Z,90.90
2023-04-21T04:25:29.767Z,91.20
2023-04-21T04:27:34.831Z,91.00
2023-04-21T04:29:39.911Z,90.90
2023-04-21T04:31:45.043Z,91.00
2023-04-21T04:33:51.647Z,91.00
2023-04-21T04:35:58.438Z,91.10
2023-04-21T04:38:04.424Z,91.00
2023-04-21T04:40:13.470Z,91.00
2023-04-21T04:42:21.048Z,90.70
2023-04-21T04:44:26.342Z,90.50
2023-04-21T04:46:31.407Z,90.80
2023-04-21T04:48:36.453Z,90.80
2023-04-21T04:50:41.677Z,90.80
2023-04-21T04:52:47.719Z,90.60
2023-04-21T04:54:52.761Z,90.50
2023-04-21T04:56:58.043Z,90.50
2023-04-21T04:59:05.797Z,90.50
2023-04-21T05:01:20.678Z,90.90
2023-04-21T05:03:25.971Z,90.90
2023-04-21T05:05:31.130Z,90.80
2023-04-21T05:07:36.681Z,90.40
2023-04-21T05:09:41.717Z,90.20
2023-04-21T05:11:46.832Z,90.30
2023-04-21T05:13:52.021Z,90.60
2023-04-21T05:16:03.585Z,90.60
2023-04-21T05:18:09.458Z,90.50
2023-04-21T05:20:15.348Z,90.30
2023-04-21T05:22:20.390Z,90.70
2023-04-21T05:24:25.468Z,90.50
2023-04-21T05:26:32.189Z,90.80
2023-04-21T05:28:37.370Z,90.70
2023-04-21T05:30:42.650Z,90.30
2023-04-21T05:32:50.820Z,90.60
2023-04-21T05:34:56.397Z,90.60
2023-04-21T05:37:01.419Z,90.40
2023-04-21T05:39:06.702Z,90.60
2023-04-21T05:41:12.094Z,90.60
2023-04-21T05:43:17.094Z,90.60
2023-04-21T05:45:22.684Z,90.70
2023-04-21T05:47:27.706Z,90.70
2023-04-21T05:49:35.654Z,90.80
2023-04-21T05:51:40.763Z,90.30
2023-04-21T05:53:49.240Z,90.30
2023-04-21T05:55:54.498Z,90.60
2023-04-21T05:57:59.748Z,90.50
2023-04-21T06:00:05.318Z,90.80
2023-04-21T06:02:11.001Z,90.50
2023-04-21T06:04:16.438Z,90.30
2023-04-21T06:06:24.287Z,89.80
2023-04-21T06:08:29.444Z,89.80
2023-04-21T06:10:35.293Z,90.20
2023-04-21T06:12:40.356Z,90.20
2023-04-21T06:14:45.608Z,89.70
2023-04-21T06:16:50.799Z,89.70
2023-04-21T06:18:56.116Z,89.90
2023-04-21T06:21:01.294Z,90.10
2023-04-21T06:23:09.696Z,89.60
2023-04-21T06:25:14.807Z,89.30
2023-04-21T06:27:19.987Z,89.00
2023-04-21T06:29:25.419Z,88.70
2023-04-21T06:31:31.159Z,88.60
2023-04-21T06:33:36.246Z,88.00
2023-04-21T06:35:41.565Z,88.50
2023-04-21T06:37:46.568Z,88.80
2023-04-21T06:39:54.139Z,87.90
2023-04-21T06:41:59.710Z,89.00
2023-04-21T06:44:05.682Z,88.10
2023-04-21T06:46:11.175Z,87.00
2023-04-21T06:48:16.800Z,87.70
2023-04-21T06:50:22.112Z,87.30
2023-04-21T06:52:27.241Z,87.60
2023-04-21T06:54:32.367Z,85.70
2023-04-21T06:56:41.938Z,86.30
2023-04-21T06:58:47.215Z,85.80
2023-04-21T07:00:52.332Z,86.30
2023-04-21T07:02:57.502Z,84.70
2023-04-21T07:05:02.854Z,86.10
2023-04-21T07:07:07.962Z,84.60
2023-04-21T07:09:12.987Z,85.30
2023-04-21T07:11:18.132Z,85.50
2023-04-21T07:13:25.728Z,84.70
2023-04-21T07:15:31.044Z,85.40
2023-04-21T07:17:36.106Z,84.60
2023-04-21T07:19:41.286Z,84.70
2023-04-21T07:21:46.374Z,84.30
2023-04-21T07:23:51.429Z,83.00
2023-04-21T07:25:56.449Z,82.80
2023-04-21T07:28:03.035Z,83.20
2023-04-21T07:30:12.173Z,82.20
2023-04-21T07:32:17.189Z,83.70
2023-04-21T07:34:22.192Z,81.80
2023-04-21T07:36:30.546Z,83.00
2023-04-21T07:38:36.225Z,83.20
2023-04-21T07:40:41.226Z,81.60
2023-04-21T07:42:46.549Z,81.20
2023-04-21T07:44:51.703Z,79.70
2023-04-21T07:46:59.304Z,80.50
2023-04-21T07:49:04.486Z,79.50
2023-04-21T07:51:09.719Z,77.80
2023-04-21T07:53:14.723Z,76.30
2023-04-21T07:55:20.036Z,76.90
2023-04-21T07:57:25.421Z,75.50
2023-04-21T07:59:30.669Z,75.80
2023-04-21T08:01:35.688Z,72.70
2023-04-21T08:03:43.422Z,72.60
2023-04-21T08:05:48.708Z,74.20
2023-04-21T08:07:53.750Z,71.80
2023-04-21T08:09:59.038Z,71.00
2023-04-21T08:12:04.335Z,68.80
2023-04-21T08:14:10.252Z,69.60
2023-04-21T08:16:15.283Z,69.90
2023-04-21T08:18:22.457Z,70.50
2023-04-21T08:20:30.546Z,66.80
2023-04-21T08:22:36.844Z,65.30
2023-04-21T08:24:41.932Z,72.40
2023-04-21T08:26:47.672Z,67.00
2023-04-21T08:28:53.103Z,67.60
2023-04-21T08:30:58.154Z,67.80
2023-04-21T08:33:03.600Z,62.80
2023-04-21T08:35:10.293Z,65.60
2023-04-21T08:37:18.607Z,63.50
2023-04-21T08:39:23.631Z,62.20
2023-04-21T08:41:29.296Z,63.20
2023-04-21T08:43:34.928Z,58.60
2023-04-21T08:45:40.029Z,60.30
2023-04-21T08:47:45.506Z,59.70
2023-04-21T08:49:54.364Z,59.20
2023-04-21T08:51:59.790Z,61.10
2023-04-21T08:54:08.253Z,59.90
2023-04-21T08:56:13.309Z,56.00
2023-04-21T08:58:18.568Z,58.30
2023-04-21T09:00:24.620Z,58.40
2023-04-21T09:02:31.019Z,59.60
2023-04-21T09:04:36.307Z,55.80
2023-04-21T09:06:46.431Z,58.10
2023-04-21T09:08:58.071Z,57.90
2023-04-21T09:11:06.033Z,54.00
2023-04-21T09:13:11.915Z,55.10
2023-04-21T09:15:16.934Z,54.90
2023-04-21T09:17:25.155Z,56.10
2023-04-21T09:19:30.430Z,55.80
2023-04-21T09:21:35.471Z,54.90
2023-04-21T09:23:49.074Z,56.50
2023-04-21T09:25:54.588Z,55.00
2023-04-21T09:28:04.229Z,55.90
2023-04-21T09:30:12.008Z,54.90
2023-04-21T09:32:21.299Z,54.80
2023-04-21T09:34:28.678Z,53.60
2023-04-21T09:36:34.522Z,56.70
2023-04-21T09:38:40.696Z,54.50
2023-04-21T09:40:45.707Z,53.70
2023-04-21T09:42:50.721Z,53.90
2023-04-21T09:45:10.907Z,54.20
2023-04-21T09:47:24.382Z,54.30
2023-04-21T09:49:34.190Z,55.50
2023-04-21T09:52:06.029Z,53.40
2023-04-21T09:54:28.515Z,54.10
2023-04-21T09:56:39.769Z,54.20
2023-04-21T09:58:50.686Z,55.00
2023-04-21T10:01:00.139Z,55.40
2023-04-21T10:03:11.645Z,56.50
2023-04-21T10:05:17.150Z,55.20
2023-04-21T10:07:22.468Z,55.90
2023-04-21T10:09:30.353Z,53.30
2023-04-21T10:11:35.529Z,54.80
2023-04-21T10:13:42.756Z,55.10
2023-04-21T10:15:47.858Z,59.60
2023-04-21T10:17:55.763Z,54.70
2023-04-21T10:20:01.562Z,54.30
2023-04-21T10:22:08.841Z,52.70
2023-04-21T10:24:18.090Z,52.90
2023-04-21T10:26:25.650Z,51.60
2023-04-21T10:28:50.745Z,52.90
2023-04-21T10:31:32.255Z,52.30
2023-04-21T10:33:42.864Z,53.00
2023-04-21T10:36:03.326Z,54.60
2023-04-21T10:38:10.178Z,52.90
2023-04-21T10:42:47.410Z,50.30
2023-04-21T10:45:08.346Z,52.20
2023-04-21T10:47:13.990Z,52.20
2023-04-21T10:49:30.435Z,52.20
2023-04-21T10:51:35.774Z,55.00
2023-04-21T10:53:47.020Z,53.60
2023-04-21T10:55:52.604Z,51.50
2023-04-21T10:57:59.297Z,51.00
2023-04-21T11:00:06.993Z,49.50
2023-04-21T11:02:15.767Z,51.10
2023-04-21T11:04:23.699Z,49.30
2023-04-21T11:06:32.892Z,51.60
2023-04-21T11:08:38.377Z,48.20
2023-04-21T11:10:56.074Z,49.80
2023-04-21T11:13:01.454Z,48.90
2023-04-21T11:15:10.273Z,50.50
2023-04-21T11:17:18.453Z,50.30
2023-04-21T11:19:25.226Z,48.60
2023-04-21T11:21:33.536Z,50.00
2023-04-21T11:23:38.591Z,49.70
2023-04-21T11:25:43.570Z,52.40
2023-04-21T11:28:00.139Z,49.60
2023-04-21T11:30:08.370Z,48.50
2023-04-21T11:32:14.256Z,48.80
2023-04-21T11:34:20.146Z,50.90
2023-04-21T11:36:25.657Z,47.20
2023-04-21T11:38:41.738Z,48.70
2023-04-21T11:40:51.629Z,47.60
2023-04-21T11:42:57.374Z,47.30
2023-04-21T11:45:02.642Z,49.60
2023-04-21T11:47:18.510Z,49.30
2023-04-21T11:49:29.504Z,48.80
2023-04-21T11:51:39.553Z,50.20
2023-04-21T11:53:49.748Z,50.90
2023-04-21T11:55:57.217Z,50.10
2023-04-21T11:58:03.575Z,49.60
2023-04-21T12:00:13.452Z,49.40
2023-04-21T12:02:26.953Z,49.00
2023-04-21T12:04:34.240Z,48.80
2023-04-21T12:06:41.038Z,49.00
2023-04-21T12:08:48.678Z,45.90
2023-04-21T12:10:53.695Z,47.10
2023-04-21T12:13:00.131Z,46.90
2023-04-21T12:15:05.367Z,47.70
2023-04-21T12:17:10.658Z,46.00
2023-04-21T12:19:26.732Z,46.00
2023-04-21T12:21:33.684Z,48.10
2023-04-21T12:23:39.315Z,45.20
2023-04-21T12:25:47.700Z,45.10
2023-04-21T12:27:53.027Z,46.20
2023-04-21T12:29:58.075Z,45.80
2023-04-21T12:32:03.677Z,44.90
2023-04-21T12:34:09.357Z,45.90
2023-04-21T12:36:14.709Z,47.00
2023-04-21T12:38:19.706Z,45.90
2023-04-21T12:40:25.047Z,46.70
2023-04-21T12:42:34.232Z,46.10
2023-04-21T12:44:41.781Z,47.40
2023-04-21T12:46:49.221Z,44.80
2023-04-21T12:48:56.185Z,45.90
2023-04-21T12:51:01.258Z,44.00
2023-04-21T12:53:06.358Z,46.30
2023-04-21T12:55:13.526Z,45.20
2023-04-21T12:57:19.261Z,43.90
2023-04-21T12:59:26.921Z,44.20
2023-04-21T13:01:32.058Z,44.00
2023-04-21T13:03:37.237Z,45.30
2023-04-21T13:05:43.779Z,45.20
2023-04-21T13:07:50.918Z,45.00
2023-04-21T13:09:55.938Z,46.30
2023-04-21T13:12:02.370Z,44.20
2023-04-21T13:14:07.566Z,44.50
2023-04-21T13:16:15.217Z,44.10
2023-04-21T13:18:20.690Z,44.20
2023-04-21T13:20:26.269Z,42.50
2023-04-21T13:22:31.424Z,43.20
2023-04-21T13:24:36.650Z,43.00
2023-04-21T13:26:41.683Z,44.20
2023-04-21T13:28:47.044Z,43.30
2023-04-21T13:30:52.463Z,40.40
2023-04-21T13:33:00.202Z,39.20
2023-04-21T13:35:09.402Z,36.40
2023-04-21T13:37:16.787Z,35.40
2023-04-21T13:39:22.180Z,37.80
2023-04-21T13:41:27.199Z,37.00
2023-04-21T13:43:32.235Z,36.60
2023-04-21T13:45:37.469Z,36.10
2023-04-21T13:47:42.886Z,35.40
2023-04-21T13:49:51.641Z,33.80
2023-04-21T13:51:57.021Z,34.70
2023-04-21T13:54:02.100Z,32.20
2023-04-21T13:56:07.316Z,31.60
2023-04-21T13:58:12.555Z,32.10
2023-04-21T14:00:19.190Z,32.30
2023-04-21T14:02:26.125Z,32.60
2023-04-21T14:04:31.524Z,32.40
2023-04-21T14:06:39.349Z,31.40
2023-04-21T14:08:44.413Z,31.40
2023-04-21T14:10:49.492Z,30.00
2023-04-21T14:12:54.847Z,31.90
2023-04-21T14:14:59.902Z,30.60
2023-04-21T14:17:04.973Z,29.50
2023-04-21T14:19:10.442Z,29.40
2023-04-21T14:21:15.609Z,28.40
2023-04-21T14:23:23.226Z,29.80
2023-04-21T14:25:28.814Z,30.90
2023-04-21T14:27:33.894Z,29.00
2023-04-21T14:29:38.928Z,28.70
2023-04-21T14:31:44.103Z,30.20
2023-04-21T14:33:49.189Z,26.90
2023-04-21T14:35:54.589Z,26.70
2023-04-21T14:38:01.499Z,26.60
2023-04-21T14:40:11.672Z,27.10
2023-04-21T14:42:16.749Z,27.70
2023-04-21T14:44:21.834Z,26.80
2023-04-21T14:46:27.063Z,26.60
2023-04-21T14:48:32.758Z,29.10
2023-04-21T14:50:37.775Z,29.10
2023-04-21T14:52:42.897Z,30.40
2023-04-21T14:54:48.312Z,28.40
2023-04-21T14:57:10.430Z,29.00
2023-04-21T14:59:23.342Z,30.00
2023-04-21T15:01:28.509Z,28.80
2023-04-21T15:03:34.034Z,31.50
2023-04-21T15:05:39.204Z,32.70
2023-04-21T15:07:44.670Z,32.30
2023-04-21T15:09:49.762Z,32.30
2023-04-21T15:11:57.508Z,32.30
2023-04-21T15:16:52.362Z,30.40
2023-04-21T15:18:57.781Z,31.40
2023-04-21T15:21:02.963Z,32.50
2023-04-21T15:23:08.098Z,32.10
2023-04-21T15:25:14.254Z,33.50
2023-04-21T15:27:21.901Z,33.70
2023-04-21T15:29:27.137Z,32.90
2023-04-21T15:31:32.227Z,33.60
2023-04-21T15:33:37.271Z,34.80
2023-04-21T15:35:42.504Z,35.50
2023-04-21T15:37:47.580Z,36.50
2023-04-21T15:39:52.807Z,36.90
2023-04-21T15:41:59.363Z,37.70
2023-04-21T15:44:07.710Z,37.20
2023-04-21T15:46:13.525Z,34.70
2023-04-21T15:48:20.510Z,33.10
2023-04-21T15:50:25.836Z,31.80
2023-04-21T15:52:31.688Z,31.60
2023-04-21T15:54:37.599Z,32.00
2023-04-21T15:56:42.838Z,32.90
2023-04-21T15:58:47.921Z,31.30
2023-04-21T16:00:55.934Z,32.70
2023-04-21T16:03:01.940Z,34.00
2023-04-21T16:05:07.989Z,33.50
2023-04-21T16:07:13.204Z,33.80
2023-04-21T16:09:18.403Z,34.90
2023-04-21T16:11:25.024Z,33.80
2023-04-21T16:13:30.448Z,32.60
2023-04-21T16:15:35.673Z,33.90
2023-04-21T16:17:43.266Z,33.30
2023-04-21T16:19:48.335Z,33.00
2023-04-21T16:21:53.864Z,33.10
2023-04-21T16:23:59.074Z,32.40
2023-04-21T16:26:06.190Z,32.60
2023-04-21T16:28:11.958Z,31.70
2023-04-21T16:30:17.258Z,30.10
2023-04-21T16:32:22.417Z,29.50
2023-04-21T16:34:30.323Z,30.60
2023-04-21T16:36:36.471Z,30.50
2023-04-21T16:38:41.481Z,33.10
2023-04-21T16:40:46.661Z,34.70
2023-04-21T16:42:51.706Z,34.80
2023-04-21T16:44:59.130Z,37.20
2023-04-21T16:47:04.402Z,37.50
2023-04-21T16:49:09.966Z,38.50
2023-04-21T16:51:17.622Z,39.50
2023-04-21T16:53:25.566Z,38.90
2023-04-21T16:55:31.582Z,40.80
2023-04-21T16:57:37.023Z,40.70
2023-04-21T16:59:42.137Z,40.40
2023-04-21T17:01:47.280Z,38.50
2023-04-21T17:03:52.477Z,39.50
2023-04-21T17:05:57.798Z,38.50
2023-04-21T17:08:06.408Z,39.20
2023-04-21T17:10:12.484Z,38.50
2023-04-21T17:12:17.796Z,38.80
2023-04-21T17:14:22.818Z,38.80
2023-04-21T17:16:28.126Z,39.30
2023-04-21T17:18:33.348Z,39.80
2023-04-21T17:20:38.671Z,39.50
2023-04-21T17:22:44.659Z,40.20
2023-04-21T17:24:54.033Z,40.30
2023-04-21T17:26:59.341Z,40.60
2023-04-21T17:29:05.234Z,40.50
2023-04-21T17:31:15.723Z,42.20
2023-04-21T17:33:21.440Z,42.50
2023-04-21T17:35:26.585Z,42.80
2023-04-21T17:37:31.992Z,43.70
2023-04-21T17:39:37.108Z,43.70
2023-04-21T17:41:46.424Z,44.60
2023-04-21T17:43:51.477Z,44.70
2023-04-21T17:45:56.575Z,44.40
2023-04-21T17:48:02.265Z,46.10
2023-04-21T17:50:09.920Z,45.30
2023-04-21T17:52:16.936Z,45.10
2023-04-21T17:54:22.396Z,45.70
2023-04-21T17:56:27.452Z,46.50
2023-04-21T17:58:35.620Z,46.40
2023-04-21T18:00:41.162Z,47.00
2023-04-21T18:02:46.531Z,46.80
2023-04-21T18:04:51.753Z,47.90
2023-04-21T18:06:56.863Z,48.00
2023-04-21T18:09:02.435Z,47.70
2023-04-21T18:11:07.615Z,48.00
2023-04-21T18:13:13.222Z,49.10
2023-04-21T18:15:21.736Z,49.30
2023-04-21T18:17:26.798Z,49.80
2023-04-21T18:19:32.303Z,50.30
2023-04-21T18:21:37.988Z,50.70
2023-04-21T18:23:43.585Z,50.70
2023-04-21T18:25:48.939Z,52.60
2023-04-21T18:27:53.989Z,52.00
2023-04-21T18:29:58.998Z,52.30
2023-04-21T18:32:06.792Z,53.00
2023-04-21T18:34:14.028Z,53.60
2023-04-21T18:36:19.045Z,54.10
2023-04-21T18:38:24.079Z,54.20
2023-04-21T18:40:29.173Z,54.40
2023-04-21T18:42:34.503Z,54.30
2023-04-21T18:44:39.825Z,54.80
2023-04-21T18:46:45.195Z,55.00
2023-04-21T18:48:53.383Z,55.40
2023-04-21T18:50:58.429Z,55.30
2023-04-21T18:53:03.502Z,55.50
2023-04-21T18:55:10.010Z,56.00
2023-04-21T18:57:15.098Z,55.70
2023-04-21T18:59:22.222Z,55.40
2023-04-21T19:01:27.869Z,55.50
2023-04-21T19:03:33.219Z,55.20
2023-04-21T19:05:41.397Z,55.10
2023-04-21T19:07:46.503Z,55.30
2023-04-21T19:09:52.272Z,56.00
2023-04-21T19:11:57.362Z,55.60
2023-04-21T19:14:02.544Z,57.20
2023-04-21T19:16:08.882Z,59.40
2023-04-21T19:18:13.982Z,63.50
2023-04-21T19:20:19.266Z,65.40
2023-04-21T19:22:27.874Z,67.10
2023-04-21T19:24:33.176Z,67.90
2023-04-21T19:26:38.242Z,70.80
2023-04-21T19:28:43.665Z,72.80
2023-04-21T19:30:48.717Z,74.10
2023-04-21T19:32:53.756Z,74.40
2023-04-21T19:34:58.919Z,75.30
2023-04-21T19:37:04.133Z,75.30
2023-04-21T19:39:11.974Z,76.10
2023-04-21T19:41:17.163Z,76.90
2023-04-21T19:43:22.812Z,78.00
2023-04-21T19:45:29.390Z,78.50
2023-04-21T19:47:36.544Z,80.00
2023-04-21T19:49:41.917Z,80.20
2023-04-21T19:51:47.085Z,79.60
2023-04-21T19:54:03.110Z,80.40
2023-04-21T19:56:18.374Z,81.50
2023-04-21T19:58:38.817Z,82.80
2023-04-21T20:00:46.584Z,84.20
2023-04-21T20:02:51.967Z,83.90
2023-04-21T20:04:57.262Z,83.70
2023-04-21T20:07:02.782Z,84.00
2023-04-21T20:09:08.304Z,84.60
2023-04-21T20:11:13.352Z,84.70
2023-04-21T20:13:21.102Z,84.50
2023-04-21T20:15:27.086Z,85.30
2023-04-21T20:17:32.674Z,85.20
2023-04-21T20:19:40.480Z,85.60
2023-04-21T20:21:46.634Z,87.70
2023-04-21T20:23:51.646Z,87.10
2023-04-21T20:25:57.418Z,87.80
2023-04-21T20:28:02.558Z,86.80
2023-04-21T20:30:11.853Z,87.30
2023-04-21T20:32:16.891Z,86.90
2023-04-21T20:34:22.065Z,86.90
2023-04-21T20:36:27.644Z,88.10
2023-04-21T20:38:34.546Z,88.80
2023-04-21T20:40:40.010Z,89.30
2023-04-21T20:42:45.281Z,89.10
2023-04-21T20:44:50.411Z,89.30
2023-04-21T20:46:58.158Z,88.70
2023-04-21T20:49:03.253Z,88.90
2023-04-21T20:51:08.781Z,89.90
2023-04-21T20:53:13.826Z,89.50
2023-04-21T20:55:19.274Z,89.90
2023-04-21T20:57:26.969Z,90.50
2023-04-21T20:59:32.127Z,90.00
2023-04-21T21:01:39.942Z,91.20
2023-04-21T21:03:48.521Z,91.10
2023-04-21T21:05:53.738Z,90.50
2023-04-21T21:07:59.537Z,90.40
2023-04-21T21:10:04.816Z,90.80
2023-04-21T21:12:09.930Z,91.20
2023-04-21T21:14:15.015Z,91.50
2023-04-21T21:16:20.966Z,91.40
2023-04-21T21:18:26.381Z,92.30
2023-04-21T21:20:34.226Z,91.80
2023-04-21T21:22:39.249Z,91.30
2023-04-21T21:24:44.868Z,91.90
2023-04-21T21:26:49.985Z,92.20
2023-04-21T21:28:55.046Z,92.30
2023-04-21T21:31:00.214Z,91.60
2023-04-21T21:33:05.287Z,91.60
2023-04-21T21:35:12.448Z,91.70
2023-04-21T21:37:20.135Z,92.00
2023-04-21T21:39:25.189Z,91.40
2023-04-21T21:41:30.273Z,92.00
2023-04-21T21:43:35.349Z,91.90
2023-04-21T21:45:40.688Z,91.90
2023-04-21T21:47:46.066Z,92.20
2023-04-21T21:49:55.047Z,92.00
2023-04-21T21:52:00.209Z,92.60
2023-04-21T21:54:09.305Z,92.70
2023-04-21T21:56:14.604Z,92.90
2023-04-21T21:58:19.742Z,92.80
2023-04-21T22:00:26.659Z,91.80
2023-04-21T22:02:32.105Z,92.20
2023-04-21T22:04:38.177Z,92.70
2023-04-21T22:06:45.427Z,92.50
2023-04-21T22:08:51.460Z,93.20
2023-04-21T22:10:59.938Z,92.40
2023-04-21T22:13:05.534Z,92.40
2023-04-21T22:15:12.271Z,92.50
2023-04-21T22:17:17.708Z,92.20
2023-04-21T22:19:22.857Z,92.60
2023-04-21T22:21:29.115Z,93.30
2023-04-21T22:23:34.320Z,93.20
2023-04-21T22:25:39.877Z,92.80
2023-04-21T22:27:47.689Z,92.80
2023-04-21T22:29:53.603Z,92.40
2023-04-21T22:31:58.928Z,92.60
2023-04-21T22:34:04.291Z,92.80
2023-04-21T22:36:10.148Z,92.00
2023-04-21T22:38:15.204Z,92.10
2023-04-21T22:40:20.288Z,93.30
2023-04-21T22:42:25.680Z,94.10
2023-04-21T22:44:33.305Z,93.90
2023-04-21T22:46:38.656Z,93.50
2023-04-21T22:48:46.790Z,93.20
2023-04-21T22:50:52.443Z,93.10
2023-04-21T22:52:57.563Z,92.70
2023-04-21T22:55:03.951Z,92.70
2023-04-21T22:57:09.214Z,92.50
2023-04-21T22:59:14.233Z,92.80
2023-04-21T23:01:22.833Z,93.50
2023-04-21T23:03:28.369Z,93.20
2023-04-21T23:05:34.128Z,93.30
2023-04-21T23:07:39.339Z,93.60
2023-04-21T23:09:44.367Z,92.70
2023-04-21T23:11:49.393Z,92.40
2023-04-21T23:13:54.869Z,92.70
2023-04-21T23:16:00.211Z,92.90
2023-04-21T23:18:08.114Z,93.00
2023-04-21T23:20:15.439Z,93.30
2023-04-21T23:22:20.606Z,93.30
2023-04-21T23:24:25.672Z,93.10
2023-04-21T23:26:31.199Z,93.30
2023-04-21T23:28:36.210Z,92.90
2023-04-21T23:30:41.242Z,93.60
2023-04-21T23:32:46.777Z,93.60
2023-04-21T23:34:54.565Z,93.30
2023-04-21T23:36:59.647Z,93.10
2023-04-21T23:39:04.704Z,93.30
2023-04-21T23:41:09.872Z,93.60
2023-04-21T23:43:14.930Z,93.40
2023-04-21T23:45:19.982Z,93.40
2023-04-21T23:47:25.508Z,94.00
2023-04-21T23:49:30.877Z,93.90
2023-04-21T23:51:38.925Z,93.70
2023-04-21T23:53:43.992Z,93.40
2023-04-21T23:55:49.222Z,93.10
2023-04-21T23:57:54.904Z,93.40
